Time;durP1;ratioP1;P1;durP2;ratioP2;P2;SDS_P1;SDS_P2;PMS_P1;PMS_P2;Temp;Humidity;BMP_temperature;BMP_pressure;BME280_temperature;BME280_humidity;BME280_pressure;Samples;Min_cycle;Max_cycle;Signal;HPM_P1;HPM_P2
2024/04/11 00:01:58;;;;;;;1.45;1.00;;;17.80;56.70;;;;;;5381293;26;20268;-69
2024/04/11 00:04:24;;;;;;;3.78;1.05;;;17.80;56.70;;;;;;5382500;26;20306;-69
2024/04/11 00:06:49;;;;;;;1.50;1.10;;;17.80;56.60;;;;;;5382007;26;20217;-69
2024/04/11 00:09:15;;;;;;;1.38;1.27;;;17.80;56.70;;;;;;5381590;26;20218;-69
2024/04/11 00:11:41;;;;;;;2.13;0.88;;;17.70;56.60;;;;;;5381891;26;20327;-69
2024/04/11 00:14:06;;;;;;;2.15;1.10;;;17.70;56.60;;;;;;5382304;26;20252;-69
2024/04/11 00:16:32;;;;;;;2.80;1.15;;;17.70;56.50;;;;;;5381318;26;21089;-69
2024/04/11 00:18:58;;;;;;;0.93;0.85;;;17.70;56.50;;;;;;5381913;26;20776;-69
2024/04/11 00:21:25;;;;;;;1.30;1.13;;;17.80;56.50;;;;;;5382273;26;20248;-69
2024/04/11 00:23:50;;;;;;;3.28;1.33;;;17.80;56.50;;;;;;5380998;26;20229;-69
2024/04/11 00:26:17;;;;;;;1.65;1.02;;;17.70;56.50;;;;;;5382178;26;20318;-69
2024/04/11 00:28:42;;;;;;;1.58;0.90;;;17.70;56.50;;;;;;5381692;26;20221;-70
2024/04/11 00:31:08;;;;;;;3.67;1.33;;;17.70;56.50;;;;;;5381257;26;20264;-69
2024/04/11 00:33:33;;;;;;;1.50;1.10;;;17.70;56.50;;;;;;5382021;26;20218;-69
2024/04/11 00:35:59;;;;;;;1.55;1.00;;;17.70;56.50;;;;;;5381551;26;20318;-69
2024/04/11 00:38:27;;;;;;;1.05;0.95;;;17.70;56.50;;;;;;5381206;26;20288;-69
2024/04/11 00:40:56;;;;;;;1.83;1.25;;;17.60;56.50;;;;;;5381562;26;20687;-69
2024/04/11 00:43:26;;;;;;;1.50;0.90;;;17.70;56.50;;;;;;5381948;26;20237;-69
2024/04/11 00:45:52;;;;;;;2.92;1.27;;;17.70;56.50;;;;;;5380733;26;20238;-69
2024/04/11 00:48:18;;;;;;;2.70;1.23;;;17.70;56.50;;;;;;5351050;26;20296;-69
2024/04/11 00:50:44;;;;;;;3.45;1.63;;;17.70;56.50;;;;;;5380615;26;20327;-69
2024/04/11 00:53:10;;;;;;;1.33;1.02;;;17.70;56.50;;;;;;5351140;26;20728;-69
2024/04/11 00:55:36;;;;;;;1.10;1.00;;;17.70;56.50;;;;;;5381581;26;20273;-69
2024/04/11 00:58:02;;;;;;;3.22;1.92;;;17.70;56.50;;;;;;5349794;26;20773;-69
2024/04/11 01:00:28;;;;;;;2.05;1.33;;;17.70;56.50;;;;;;5380238;26;20719;-69
2024/04/11 01:02:53;;;;;;;2.10;1.30;;;17.70;56.50;;;;;;5381218;26;20226;-69
2024/04/11 01:05:19;;;;;;;1.70;1.30;;;17.70;56.40;;;;;;5380758;26;20268;-69
2024/04/11 01:07:54;;;;;;;2.17;1.25;;;17.70;56.40;;;;;;5381171;26;20221;-69
2024/04/11 01:10:21;;;;;;;2.78;1.48;;;17.70;56.40;;;;;;5381541;26;20225;-69
2024/04/11 01:12:51;;;;;;;2.50;1.42;;;17.70;56.40;;;;;;5380375;26;20260;-69
2024/04/11 01:15:17;;;;;;;1.10;1.00;;;17.70;56.40;;;;;;5381227;26;20233;-68
2024/04/11 01:17:48;;;;;;;2.08;1.40;;;17.70;56.40;;;;;;5381129;26;20319;-69
2024/04/11 01:20:15;;;;;;;1.88;1.35;;;17.60;56.30;;;;;;5380704;26;20217;-69
2024/04/11 01:22:41;;;;;;;3.67;1.52;;;17.70;56.40;;;;;;5381144;26;20221;-69
2024/04/11 01:25:08;;;;;;;2.42;1.25;;;17.70;56.40;;;;;;5381427;26;20226;-69
2024/04/11 01:27:34;;;;;;;4.45;1.63;;;17.70;56.40;;;;;;5380484;26;20299;-69
2024/04/11 01:30:03;;;;;;;2.72;1.50;;;17.60;56.30;;;;;;5380928;26;20218;-69
2024/04/11 01:32:29;;;;;;;1.85;1.20;;;17.60;56.40;;;;;;5381144;26;20269;-69
2024/04/11 01:34:56;;;;;;;2.75;1.30;;;17.60;56.40;;;;;;5380039;26;20259;-69
2024/04/11 01:37:22;;;;;;;1.52;1.10;;;17.60;56.40;;;;;;5381001;26;20758;-69
2024/04/11 01:39:49;;;;;;;1.95;1.02;;;17.70;56.40;;;;;;5380751;26;20218;-69
2024/04/11 01:42:14;;;;;;;1.63;0.85;;;17.60;56.40;;;;;;5380377;26;20587;-69
2024/04/11 01:44:40;;;;;;;1.65;1.00;;;17.60;56.40;;;;;;5380789;26;20221;-69
2024/04/11 01:47:05;;;;;;;1.73;1.10;;;17.60;56.40;;;;;;5380074;26;20221;-69
2024/04/11 01:49:31;;;;;;;1.58;1.10;;;17.60;56.40;;;;;;5380922;26;20737;-69
2024/04/11 01:51:57;;;;;;;2.65;1.05;;;17.60;56.40;;;;;;5380539;26;20635;-69
2024/04/11 01:54:23;;;;;;;1.60;1.10;;;17.60;56.50;;;;;;5379990;26;20225;-69
2024/04/11 01:56:49;;;;;;;2.28;1.10;;;17.60;56.50;;;;;;5380376;26;20667;-69
2024/04/11 01:59:16;;;;;;;1.35;1.08;;;17.60;56.50;;;;;;5380841;26;20233;-69
2024/04/11 02:01:42;;;;;;;2.08;0.98;;;17.60;56.50;;;;;;5379626;26;20221;-69
2024/04/11 02:04:09;;;;;;;2.35;0.95;;;17.60;56.50;;;;;;5380777;26;20272;-69
2024/04/11 02:06:38;;;;;;;1.70;1.20;;;17.60;56.60;;;;;;5380700;26;20221;-69
2024/04/11 02:09:11;;;;;;;3.72;1.25;;;17.60;56.50;;;;;;5379529;26;20221;-69
2024/04/11 02:11:42;;;;;;;2.00;1.50;;;17.60;56.50;;;;;;5351304;26;20230;-69
2024/04/11 02:14:07;;;;;;;1.40;1.00;;;17.60;56.50;;;;;;5380679;26;20739;-69
2024/04/11 02:16:36;;;;;;;3.38;1.25;;;17.60;56.50;;;;;;5379393;26;20242;-69
2024/04/11 02:19:06;;;;;;;1.33;1.00;;;17.60;56.50;;;;;;5380082;26;20722;-69
2024/04/11 02:21:33;;;;;;;1.30;0.93;;;17.60;56.50;;;;;;5380504;26;20260;-69
2024/04/11 02:23:58;;;;;;;1.35;1.25;;;17.60;56.50;;;;;;5379283;26;20285;-69
2024/04/11 02:26:25;;;;;;;1.88;1.10;;;17.60;56.50;;;;;;5380420;26;20718;-69
2024/04/11 02:28:50;;;;;;;2.33;0.98;;;17.60;56.50;;;;;;5379963;26;20229;-69
2024/04/11 02:31:16;;;;;;;1.35;0.88;;;17.60;56.50;;;;;;5379469;26;20221;-69
2024/04/11 02:33:41;;;;;;;2.00;1.30;;;17.60;56.50;;;;;;5379906;26;20218;-69
2024/04/11 02:36:08;;;;;;;3.20;1.20;;;17.60;56.60;;;;;;5380178;26;20318;-69
2024/04/11 02:38:34;;;;;;;1.65;1.00;;;17.60;56.60;;;;;;5349055;26;20226;-69
2024/04/11 02:40:59;;;;;;;3.53;1.40;;;17.60;56.60;;;;;;5379707;26;20687;-69
2024/04/11 02:43:25;;;;;;;2.72;1.35;;;17.60;56.60;;;;;;5379274;26;20217;-69
2024/04/11 02:45:53;;;;;;;1.92;1.23;;;17.60;56.60;;;;;;5379606;26;20217;-69
2024/04/11 02:48:18;;;;;;;1.60;1.38;;;17.60;56.60;;;;;;5380035;26;20299;-69
2024/04/11 02:50:44;;;;;;;1.95;1.40;;;17.60;56.60;;;;;;5378736;26;20221;-69
2024/04/11 02:53:09;;;;;;;2.42;1.10;;;17.60;56.60;;;;;;5379921;26;20322;-69
2024/04/11 02:55:35;;;;;;;1.45;1.02;;;17.50;56.60;;;;;;5379873;26;20253;-69
2024/04/11 02:58:01;;;;;;;1.40;1.08;;;17.50;56.60;;;;;;5378637;26;20217;-69
2024/04/11 03:00:27;;;;;;;1.45;1.10;;;17.60;56.60;;;;;;5379802;26;20339;-69
2024/04/11 03:02:53;;;;;;;1.55;1.00;;;17.50;56.60;;;;;;5378634;26;21295;-69
2024/04/11 03:05:19;;;;;;;2.33;1.33;;;17.50;56.60;;;;;;5377671;26;20817;-69
2024/04/11 03:07:45;;;;;;;1.20;1.10;;;17.50;56.60;;;;;;5375766;26;20809;-69
2024/04/11 03:10:10;;;;;;;2.50;1.20;;;17.50;56.60;;;;;;5378594;26;20230;-69
2024/04/11 03:12:36;;;;;;;2.28;1.15;;;17.50;56.60;;;;;;5378828;26;20692;-69
2024/04/11 03:15:07;;;;;;;2.42;1.20;;;17.50;56.70;;;;;;5379205;26;20238;-69
2024/04/11 03:17:33;;;;;;;2.53;1.67;;;17.50;56.70;;;;;;5379568;26;20277;-69
2024/04/11 03:19:59;;;;;;;2.88;1.15;;;17.50;56.60;;;;;;5378285;26;20226;-69
2024/04/11 03:22:25;;;;;;;1.63;1.20;;;17.50;56.70;;;;;;5379409;26;20257;-69
2024/04/11 03:24:50;;;;;;;1.85;1.15;;;17.50;56.70;;;;;;5381925;26;20260;-69
2024/04/11 03:27:16;;;;;;;2.28;1.10;;;17.50;56.70;;;;;;5382186;26;20281;-69
2024/04/11 03:29:43;;;;;;;2.15;1.05;;;17.50;56.70;;;;;;5381545;26;20256;-69
2024/04/11 03:32:13;;;;;;;1.52;0.90;;;17.50;56.70;;;;;;5381422;26;20252;-69
2024/04/11 03:34:40;;;;;;;2.40;1.30;;;17.50;56.80;;;;;;5382125;26;20229;-69
2024/04/11 03:37:06;;;;;;;2.03;1.17;;;17.40;56.70;;;;;;5382766;26;20278;-69
2024/04/11 03:39:31;;;;;;;1.83;1.00;;;17.50;56.70;;;;;;5382138;26;20218;-69
2024/04/11 03:41:57;;;;;;;2.47;1.13;;;17.50;56.70;;;;;;5382301;26;20264;-69
2024/04/11 03:44:23;;;;;;;1.55;1.00;;;17.50;56.80;;;;;;5382799;26;20218;-69
2024/04/11 03:46:48;;;;;;;1.25;0.90;;;17.50;56.80;;;;;;5381452;26;20260;-69
2024/04/11 03:49:14;;;;;;;2.30;1.00;;;17.50;56.80;;;;;;5382689;26;20586;-69
2024/04/11 03:51:41;;;;;;;1.77;0.90;;;17.50;56.80;;;;;;5382692;26;20221;-69
2024/04/11 03:54:07;;;;;;;2.30;1.10;;;17.50;56.80;;;;;;5381986;26;20221;-69
2024/04/11 03:56:33;;;;;;;1.55;1.10;;;17.50;56.80;;;;;;5382594;26;20233;-69
2024/04/11 03:58:59;;;;;;;3.28;1.33;;;17.50;56.80;;;;;;5382210;26;20707;-69
2024/04/11 04:01:26;;;;;;;3.88;1.30;;;17.50;56.80;;;;;;5381724;26;20259;-69
2024/04/11 04:03:54;;;;;;;1.85;1.10;;;17.50;56.80;;;;;;5382105;26;20229;-69
2024/04/11 04:06:21;;;;;;;1.33;1.00;;;17.50;56.80;;;;;;5382509;26;20260;-69
2024/04/11 04:08:47;;;;;;;7.22;1.20;;;17.50;56.80;;;;;;5380331;26;20225;-69
2024/04/11 04:11:13;;;;;;;1.92;1.30;;;17.40;56.80;;;;;;5381440;26;20229;-69
2024/04/11 04:13:39;;;;;;;1.75;1.10;;;17.40;56.80;;;;;;5381140;26;20225;-68
2024/04/11 04:16:11;;;;;;;2.72;1.02;;;17.50;56.80;;;;;;5379085;26;20959;-69
2024/04/11 04:18:37;;;;;;;3.50;1.00;;;17.50;56.80;;;;;;5379012;26;20320;-69
2024/04/11 04:21:04;;;;;;;1.85;1.00;;;17.50;56.80;;;;;;5381856;26;20343;-69
2024/04/11 04:23:30;;;;;;;1.50;1.15;;;17.50;56.90;;;;;;5381440;26;20259;-69
2024/04/11 04:26:05;;;;;;;2.10;1.05;;;17.50;56.80;;;;;;5381765;26;20225;-68
2024/04/11 04:28:32;;;;;;;1.48;1.10;;;17.40;56.80;;;;;;5382159;26;20268;-69
2024/04/11 04:31:13;;;;;;;1.48;1.05;;;17.40;56.80;;;;;;5380897;26;20221;-69
2024/04/11 04:33:39;;;;;;;2.50;1.10;;;17.40;56.90;;;;;;5382046;26;20244;-69
2024/04/11 04:36:08;;;;;;;2.30;1.23;;;17.50;56.90;;;;;;5380689;26;20213;-69
2024/04/11 04:38:34;;;;;;;2.03;1.15;;;17.40;56.80;;;;;;5381958;26;20222;-68
2024/04/11 04:41:01;;;;;;;1.33;0.88;;;17.40;56.90;;;;;;5380027;26;20264;-69
2024/04/11 04:43:29;;;;;;;1.92;1.20;;;17.40;56.90;;;;;;5381224;26;20255;-69
2024/04/11 04:45:57;;;;;;;1.88;1.08;;;17.40;56.90;;;;;;5381710;26;20680;-69
2024/04/11 04:48:23;;;;;;;1.63;1.10;;;17.40;56.90;;;;;;5381925;26;20269;-69
2024/04/11 04:50:48;;;;;;;3.30;1.40;;;17.40;56.90;;;;;;5380609;26;20315;-69
2024/04/11 04:53:14;;;;;;;2.05;1.20;;;17.40;56.90;;;;;;5381797;26;20260;-69
2024/04/11 04:55:40;;;;;;;1.45;1.10;;;17.40;56.90;;;;;;5381441;26;20244;-69
2024/04/11 04:58:06;;;;;;;2.05;1.30;;;17.40;56.90;;;;;;5380959;26;20221;-69
2024/04/11 05:00:32;;;;;;;1.15;1.00;;;17.40;56.90;;;;;;5381796;26;20233;-69
2024/04/11 05:03:03;;;;;;;2.13;1.10;;;17.40;56.90;;;;;;5381259;26;20244;-69
2024/04/11 05:05:28;;;;;;;1.35;0.98;;;17.40;56.90;;;;;;5350234;26;20263;-69
2024/04/11 05:07:54;;;;;;;1.50;1.02;;;17.40;56.90;;;;;;5381173;26;20225;-69
2024/04/11 05:10:20;;;;;;;1.98;1.00;;;17.40;56.90;;;;;;5381591;26;20225;-69
2024/04/11 05:12:49;;;;;;;2.05;1.08;;;17.40;56.90;;;;;;5380220;26;20221;-69
2024/04/11 05:15:15;;;;;;;1.85;1.00;;;17.40;56.90;;;;;;5381294;26;20221;-69
2024/04/11 05:17:41;;;;;;;1.55;1.13;;;17.40;57.00;;;;;;5381311;26;20676;-70
2024/04/11 05:20:17;;;;;;;2.13;1.23;;;17.40;57.00;;;;;;5380443;26;20676;-69
2024/04/11 05:22:46;;;;;;;2.08;0.82;;;17.40;57.00;;;;;;5381124;26;20583;-69
2024/04/11 05:25:14;;;;;;;1.02;0.80;;;17.40;57.00;;;;;;5380567;26;20217;-69
2024/04/11 05:27:40;;;;;;;2.97;1.40;;;17.40;57.00;;;;;;5381295;26;20264;-69
2024/04/11 05:30:11;;;;;;;1.73;1.10;;;17.40;57.00;;;;;;5381379;26;21052;-69
2024/04/11 05:32:39;;;;;;;2.22;1.30;;;17.40;57.00;;;;;;5380446;26;20225;-69
2024/04/11 05:35:06;;;;;;;1.85;1.17;;;17.40;57.00;;;;;;5381090;26;20222;-69
2024/04/11 05:37:31;;;;;;;2.80;1.65;;;17.30;57.00;;;;;;5381165;26;20569;-69
2024/04/11 05:39:58;;;;;;;1.55;0.98;;;17.40;57.00;;;;;;5379932;26;20217;-69
2024/04/11 05:42:25;;;;;;;2.15;1.27;;;17.30;57.00;;;;;;5381185;26;20218;-69
2024/04/11 05:44:50;;;;;;;3.25;1.17;;;17.40;57.00;;;;;;5380655;26;20260;-70
2024/04/11 05:47:16;;;;;;;2.05;0.90;;;17.40;57.00;;;;;;5379202;26;20551;-69
2024/04/11 05:49:41;;;;;;;3.00;1.40;;;17.40;57.00;;;;;;5380301;26;20218;-69
2024/04/11 05:52:08;;;;;;;3.10;1.33;;;17.40;57.00;;;;;;5380719;26;20249;-69
2024/04/11 05:54:33;;;;;;;3.03;1.23;;;17.40;57.00;;;;;;5380015;26;20221;-69
2024/04/11 05:56:59;;;;;;;2.05;1.38;;;17.40;57.00;;;;;;5380036;26;20217;-69
2024/04/11 05:59:25;;;;;;;1.92;1.13;;;17.30;57.00;;;;;;5380778;26;20272;-70
2024/04/11 06:01:50;;;;;;;1.38;1.02;;;17.40;57.00;;;;;;5379563;26;20221;-69
2024/04/11 06:04:16;;;;;;;1.67;0.93;;;17.40;57.00;;;;;;5380806;26;20264;-69
2024/04/11 06:06:41;;;;;;;1.38;1.27;;;17.30;57.00;;;;;;5380343;26;20264;-69
2024/04/11 06:09:08;;;;;;;1.50;1.40;;;17.30;57.00;;;;;;5379855;26;20217;-69
2024/04/11 06:11:34;;;;;;;2.08;1.45;;;17.40;57.10;;;;;;5380634;26;20229;-69
2024/04/11 06:14:00;;;;;;;4.13;1.50;;;17.30;57.00;;;;;;5380293;26;20259;-69
2024/04/11 06:16:25;;;;;;;1.90;1.20;;;17.40;57.10;;;;;;5379628;26;20233;-70
2024/04/11 06:18:54;;;;;;;3.10;1.15;;;17.30;57.00;;;;;;5380064;26;20267;-69
2024/04/11 06:21:22;;;;;;;1.63;1.25;;;17.40;57.80;;;;;;5379725;26;20233;-69
2024/04/11 06:23:47;;;;;;;1.33;1.20;;;17.30;57.10;;;;;;5380001;26;20221;-69
2024/04/11 06:26:14;;;;;;;2.38;1.35;;;17.30;57.10;;;;;;5380368;26;20273;-69
2024/04/11 06:28:40;;;;;;;1.52;1.33;;;17.30;57.10;;;;;;5379225;26;20210;-69
2024/04/11 06:31:05;;;;;;;2.10;1.10;;;17.30;57.10;;;;;;5380208;26;20606;-70
2024/04/11 06:33:32;;;;;;;2.10;1.15;;;17.30;57.10;;;;;;5380249;26;20233;-69
2024/04/11 06:35:58;;;;;;;1.65;1.00;;;17.30;57.10;;;;;;5378705;26;20229;-69
2024/04/11 06:38:24;;;;;;;1.75;1.20;;;17.30;57.20;;;;;;5380407;26;20222;-68
2024/04/11 06:40:50;;;;;;;2.63;1.15;;;17.30;57.20;;;;;;5379669;26;20264;-69
2024/04/11 06:43:16;;;;;;;2.83;1.38;;;17.30;57.10;;;;;;5381999;26;20793;-68
2024/04/11 06:45:43;;;;;;;3.67;1.45;;;17.30;57.10;;;;;;5379640;26;20285;-67
2024/04/11 06:48:08;;;;;;;2.45;1.00;;;17.30;57.20;;;;;;5379984;26;20252;-67
2024/04/11 06:50:34;;;;;;;4.22;1.60;;;17.30;57.20;;;;;;5379231;26;20229;-68
2024/04/11 06:53:04;;;;;;;4.45;1.02;;;17.40;57.30;;;;;;5379403;26;20256;-68
2024/04/11 06:55:30;;;;;;;4.15;1.45;;;17.40;57.30;;;;;;5379242;26;20300;-66
2024/04/11 06:57:56;;;;;;;2.42;1.35;;;17.40;57.30;;;;;;5379384;26;20272;-67
2024/04/11 07:00:41;;;;;;;0.98;0.85;;;17.40;57.40;;;;;;5383322;26;20218;-67
2024/04/11 07:03:26;;;;;;;3.17;1.50;;;17.40;57.40;;;;;;5383358;26;20329;-68
2024/04/11 07:05:55;;;;;;;3.05;1.60;;;17.40;57.60;;;;;;5382225;26;20217;-68
2024/04/11 07:08:34;;;;;;;1.98;1.05;;;17.40;57.40;;;;;;5380889;26;20233;-68
2024/04/11 07:11:19;;;;;;;2.35;1.48;;;17.40;57.50;;;;;;5379124;26;20259;-67
2024/04/11 07:13:47;;;;;;;2.30;1.30;;;17.40;57.40;;;;;;5381450;26;20233;-68
2024/04/11 07:16:16;;;;;;;2.50;1.20;;;17.40;57.50;;;;;;5382667;26;20233;-67
2024/04/11 07:18:48;;;;;;;6.82;1.55;;;17.40;57.50;;;;;;5382024;26;20217;-67
2024/04/11 07:21:17;;;;;;;2.20;1.40;;;17.40;57.50;;;;;;5383071;26;20264;-67
2024/04/11 07:23:55;;;;;;;2.25;1.10;;;17.40;57.60;;;;;;5382656;26;20252;-68
2024/04/11 07:26:29;;;;;;;2.85;1.33;;;17.40;57.60;;;;;;5382218;26;20260;-68
2024/04/11 07:28:55;;;;;;;2.70;1.58;;;17.40;57.70;;;;;;5382676;26;20598;-68
2024/04/11 07:31:21;;;;;;;2.20;1.50;;;17.40;57.60;;;;;;5382943;26;20256;-67
2024/04/11 07:33:48;;;;;;;2.88;1.20;;;17.40;57.60;;;;;;5381593;26;20260;-68
2024/04/11 07:36:16;;;;;;;3.25;1.40;;;17.50;57.70;;;;;;5382712;26;21127;-68
2024/04/11 07:38:42;;;;;;;2.88;1.40;;;17.50;57.80;;;;;;5381543;26;20587;-68
2024/04/11 07:41:16;;;;;;;2.40;1.13;;;17.40;57.80;;;;;;5382688;26;20222;-69
2024/04/11 07:43:51;;;;;;;4.80;1.30;;;17.50;57.80;;;;;;5382237;26;20540;-68
2024/04/11 07:46:17;;;;;;;5.15;1.58;;;17.40;58.00;;;;;;5381737;26;20259;-67
2024/04/11 07:48:51;;;;;;;6.53;1.60;;;17.40;58.00;;;;;;5382180;26;20233;-68
2024/04/11 07:51:20;;;;;;;4.20;1.27;;;17.40;58.10;;;;;;5382735;26;20225;-71
2024/04/11 07:53:49;;;;;;;2.45;1.25;;;17.40;58.10;;;;;;5381392;26;20307;-68
2024/04/11 07:56:23;;;;;;;6.72;1.70;;;17.40;58.10;;;;;;5382336;26;20221;-68
2024/04/11 07:58:49;;;;;;;1.90;1.20;;;17.40;58.10;;;;;;5381966;26;20233;-69
2024/04/11 08:01:22;;;;;;;5.22;1.40;;;17.40;58.10;;;;;;5381794;26;20263;-68
2024/04/11 08:03:49;;;;;;;5.28;1.40;;;17.40;58.10;;;;;;5382151;26;20256;-68
2024/04/11 08:06:16;;;;;;;3.95;1.33;;;17.40;58.20;;;;;;5382528;26;20218;-69
2024/04/11 08:08:42;;;;;;;3.63;1.45;;;17.40;58.10;;;;;;5380890;26;20672;-68
2024/04/11 08:11:10;;;;;;;1.73;1.25;;;17.40;58.10;;;;;;5382073;26;20296;-68
2024/04/11 08:13:38;;;;;;;3.30;1.30;;;17.40;58.10;;;;;;5382410;26;20226;-69
2024/04/11 08:16:09;;;;;;;2.83;1.50;;;17.40;58.10;;;;;;5380889;26;20280;-68
2024/04/11 08:18:34;;;;;;;3.15;1.60;;;17.40;58.10;;;;;;5382341;26;20731;-69
2024/04/11 08:21:03;;;;;;;3.00;1.40;;;17.40;58.10;;;;;;5381037;26;20218;-69
2024/04/11 08:23:29;;;;;;;1.95;1.17;;;17.40;58.20;;;;;;5382195;26;20273;-69
2024/04/11 08:25:55;;;;;;;5.28;2.22;;;17.40;58.20;;;;;;5381760;26;20260;-68
2024/04/11 08:28:21;;;;;;;2.10;1.30;;;17.40;58.10;;;;;;5381337;26;20785;-68
2024/04/11 08:30:47;;;;;;;2.65;1.17;;;17.40;58.20;;;;;;5381802;26;20261;-68
2024/04/11 08:33:14;;;;;;;3.28;1.50;;;17.40;58.20;;;;;;5381921;26;20576;-69
2024/04/11 08:35:44;;;;;;;1.77;1.45;;;17.40;58.30;;;;;;5380975;26;20251;-68
2024/04/11 08:38:12;;;;;;;3.25;1.40;;;17.40;58.30;;;;;;5381913;26;20226;-68
2024/04/11 08:40:39;;;;;;;2.55;1.27;;;17.40;58.30;;;;;;5382088;26;20691;-69
2024/04/11 08:43:05;;;;;;;3.47;1.38;;;17.40;58.30;;;;;;5350761;26;20225;-68
2024/04/11 08:45:31;;;;;;;2.88;1.20;;;17.40;58.30;;;;;;5381908;26;20330;-68
2024/04/11 08:47:57;;;;;;;3.50;1.17;;;17.40;58.20;;;;;;5381506;26;20741;-68
2024/04/11 08:50:23;;;;;;;4.70;1.58;;;17.40;58.30;;;;;;5350400;26;20225;-68
2024/04/11 08:52:48;;;;;;;1.80;1.33;;;17.40;58.20;;;;;;5381315;26;20260;-68
2024/04/11 08:55:16;;;;;;;3.90;1.40;;;17.40;58.20;;;;;;5350985;26;20638;-69
2024/04/11 08:57:42;;;;;;;3.25;1.15;;;17.40;58.20;;;;;;5380563;26;20221;-69
2024/04/11 09:00:12;;;;;;;2.13;1.50;;;17.50;58.20;;;;;;5381616;26;20339;-69
2024/04/11 09:02:44;;;;;;;2.17;1.23;;;17.40;58.10;;;;;;5351653;26;20285;-69
2024/04/11 09:05:14;;;;;;;4.50;1.55;;;17.50;58.20;;;;;;5380765;26;20218;-69
2024/04/11 09:07:40;;;;;;;3.03;1.30;;;17.50;58.20;;;;;;5352001;26;20335;-69
2024/04/11 09:10:07;;;;;;;5.13;1.70;;;17.50;58.20;;;;;;5380853;26;20470;-68
2024/04/11 09:12:32;;;;;;;6.20;1.73;;;17.40;58.20;;;;;;5381664;26;20265;-69
2024/04/11 09:14:58;;;;;;;3.38;1.50;;;17.40;58.20;;;;;;5381073;26;20217;-69
2024/04/11 09:17:24;;;;;;;4.65;1.73;;;17.40;58.30;;;;;;5380468;26;20608;-69
2024/04/11 09:19:59;;;;;;;2.70;1.73;;;17.50;58.30;;;;;;5380978;26;20680;-69
2024/04/11 09:22:33;;;;;;;2.97;1.60;;;17.50;58.30;;;;;;5351789;26;20217;-68
2024/04/11 09:24:58;;;;;;;3.35;1.30;;;17.50;58.40;;;;;;5351401;26;20222;-69
2024/04/11 09:27:25;;;;;;;2.50;1.50;;;17.50;58.30;;;;;;5350477;26;20296;-69
2024/04/11 09:29:52;;;;;;;1.92;1.25;;;17.50;58.20;;;;;;5380946;26;20229;-68
2024/04/11 09:32:21;;;;;;;2.17;1.45;;;17.50;58.20;;;;;;5380432;26;20225;-69
2024/04/11 09:34:47;;;;;;;1.92;1.25;;;17.50;58.20;;;;;;5350922;26;20598;-68
2024/04/11 09:37:15;;;;;;;1.65;1.50;;;17.50;58.20;;;;;;5350602;26;20222;-68
2024/04/11 09:39:48;;;;;;;3.85;1.45;;;17.50;58.20;;;;;;5349695;26;20340;-68
2024/04/11 09:42:20;;;;;;;2.35;1.30;;;17.60;58.20;;;;;;5381157;26;20222;-68
2024/04/11 09:44:47;;;;;;;2.13;1.33;;;17.50;58.20;;;;;;5380532;26;20699;-68
2024/04/11 09:47:14;;;;;;;2.58;1.40;;;17.60;58.20;;;;;;5380212;26;20221;-68
2024/04/11 09:49:42;;;;;;;3.50;1.27;;;17.50;58.20;;;;;;5380740;26;20233;-68
2024/04/11 09:52:08;;;;;;;2.38;1.00;;;17.60;58.30;;;;;;5380968;26;20214;-68
2024/04/11 09:54:38;;;;;;;2.53;1.30;;;17.60;58.30;;;;;;5349386;26;20537;-68
2024/04/11 09:57:07;;;;;;;1.75;1.13;;;17.60;58.30;;;;;;5380407;26;20226;-68
2024/04/11 09:59:32;;;;;;;2.17;1.40;;;17.60;58.30;;;;;;5379890;26;20229;-68
2024/04/11 10:02:01;;;;;;;3.92;1.70;;;17.60;58.30;;;;;;5380423;26;20263;-68
2024/04/11 10:04:35;;;;;;;2.05;1.48;;;17.60;58.40;;;;;;5380764;26;20221;-68
2024/04/11 10:07:08;;;;;;;2.60;1.27;;;17.60;58.40;;;;;;5379588;26;20225;-68
2024/04/11 10:09:34;;;;;;;2.17;1.20;;;17.60;58.30;;;;;;5380791;26;20739;-68
2024/04/11 10:12:11;;;;;;;2.80;1.42;;;17.60;58.40;;;;;;5380320;26;21213;-68
2024/04/11 10:14:39;;;;;;;2.90;1.33;;;17.60;58.40;;;;;;5379784;26;20680;-68
2024/04/11 10:17:05;;;;;;;5.50;1.63;;;17.60;58.40;;;;;;5398721;26;20641;-68
2024/04/11 10:19:31;;;;;;;2.45;1.40;;;17.60;58.40;;;;;;5415903;26;20255;-68
2024/04/11 10:22:07;;;;;;;2.97;1.63;;;17.60;58.40;;;;;;5414777;26;20251;-68
2024/04/11 10:24:36;;;;;;;1.40;1.27;;;17.60;58.40;;;;;;5415830;26;20216;-68
2024/04/11 10:27:17;;;;;;;3.10;1.60;;;17.60;58.40;;;;;;5415570;26;20255;-68
2024/04/11 10:29:47;;;;;;;2.03;1.20;;;17.60;58.50;;;;;;5414582;26;20280;-68
2024/04/11 10:32:13;;;;;;;3.80;1.40;;;17.60;58.50;;;;;;5415571;26;20271;-68
2024/04/11 10:34:47;;;;;;;1.75;1.35;;;17.60;58.50;;;;;;5416997;26;20267;-68
2024/04/11 10:37:15;;;;;;;2.88;1.40;;;17.60;58.60;;;;;;5417103;26;20224;-67
2024/04/11 10:39:41;;;;;;;1.70;1.30;;;17.60;58.60;;;;;;5414291;26;20232;-68
2024/04/11 10:42:15;;;;;;;4.65;1.48;;;17.60;58.70;;;;;;5414694;26;20714;-68
2024/04/11 10:44:40;;;;;;;2.60;1.35;;;17.60;58.70;;;;;;5418733;26;20315;-66
2024/04/11 10:47:13;;;;;;;1.55;1.30;;;17.60;58.70;;;;;;5418582;26;20224;-66
2024/04/11 10:49:41;;;;;;;3.95;1.50;;;17.60;58.70;;;;;;5416698;26;20661;-67
2024/04/11 10:52:10;;;;;;;3.05;1.20;;;17.60;58.80;;;;;;5417401;26;20216;-68
2024/04/11 10:54:36;;;;;;;2.72;2.10;;;17.60;58.80;;;;;;5418982;26;20220;-68
2024/04/11 10:57:03;;;;;;;2.95;1.30;;;17.60;58.80;;;;;;5417775;26;20616;-68
2024/04/11 10:59:32;;;;;;;2.95;1.65;;;17.60;58.80;;;;;;5417248;26;20792;-69
2024/04/11 11:02:02;;;;;;;2.28;1.25;;;17.60;58.80;;;;;;5418197;26;20221;-70
2024/04/11 11:04:30;;;;;;;1.67;1.25;;;17.60;58.80;;;;;;5416272;26;20259;-68
2024/04/11 11:06:59;;;;;;;4.30;1.50;;;17.60;58.70;;;;;;5418183;26;20254;-69
2024/04/11 11:09:27;;;;;;;3.75;1.52;;;17.70;59.10;;;;;;5417184;26;20217;-66
2024/04/11 11:11:54;;;;;;;5.57;1.70;;;17.60;59.00;;;;;;5417581;26;20217;-67
2024/04/11 11:14:24;;;;;;;1.80;1.50;;;17.70;58.80;;;;;;5418717;26;20225;-69
2024/04/11 11:16:50;;;;;;;3.47;1.38;;;17.70;59.10;;;;;;5413697;26;20237;-70
2024/04/11 11:19:16;;;;;;;1.92;1.27;;;17.70;59.10;;;;;;5418322;26;20229;-69
2024/04/11 11:21:51;;;;;;;4.95;1.52;;;17.70;59.10;;;;;;5418263;26;20553;-69
2024/04/11 11:24:24;;;;;;;2.58;1.75;;;17.70;59.20;;;;;;5414741;26;20736;-66
2024/04/11 11:26:53;;;;;;;3.20;1.50;;;17.70;59.20;;;;;;5418132;26;20272;-67
2024/04/11 11:29:25;;;;;;;4.47;1.70;;;17.70;59.10;;;;;;5418622;26;20309;-66
2024/04/11 11:32:01;;;;;;;5.05;1.30;;;17.70;59.20;;;;;;5417419;26;20616;-66
2024/04/11 11:34:27;;;;;;;3.72;1.60;;;17.70;59.30;;;;;;5418595;26;20272;-67
2024/04/11 11:36:58;;;;;;;3.05;1.20;;;17.70;59.20;;;;;;5417939;26;20715;-67
2024/04/11 11:39:26;;;;;;;3.00;1.67;;;17.70;59.30;;;;;;5417560;26;20288;-66
2024/04/11 11:42:08;;;;;;;4.63;1.67;;;17.70;59.30;;;;;;5417916;26;20232;-66
2024/04/11 11:47:45;;;;;;;3.80;1.50;;;17.70;59.50;;;;;;5418462;26;20255;-69
2024/04/11 11:50:21;;;;;;;1.60;1.40;;;17.70;59.60;;;;;;5418343;26;20255;-69
2024/04/11 11:52:50;;;;;;;3.88;1.70;;;17.80;59.50;;;;;;5416970;26;20251;-72
2024/04/11 11:55:18;;;;;;;1.65;1.45;;;17.80;59.60;;;;;;5418192;26;20325;-69
2024/04/11 11:57:47;;;;;;;4.03;1.55;;;17.70;59.60;;;;;;5417701;26;20685;-70
2024/04/11 12:00:19;;;;;;;3.33;1.50;;;17.80;59.70;;;;;;5417339;26;20221;-69
2024/04/11 12:02:56;;;;;;;1.83;1.30;;;17.80;59.70;;;;;;5417780;26;20316;-70
2024/04/11 12:05:26;;;;;;;2.78;1.60;;;17.70;60.50;;;;;;5418205;26;20213;-69
2024/04/11 12:07:55;;;;;;;2.53;1.38;;;17.70;59.70;;;;;;5416940;26;20217;-69
2024/04/11 12:11:14;;;;;;;4.53;1.60;;;17.80;59.60;;;;;;5418004;26;20255;-70
2024/04/11 12:13:27;;;;;;;4.25;1.52;;;17.80;59.80;;;;;;5417039;26;21112;-68
2024/04/11 12:15:55;;;;;;;3.45;1.75;;;17.80;59.80;;;;;;5407059;26;20703;-68
2024/04/11 12:18:23;;;;;;;4.53;1.77;;;17.80;59.80;;;;;;5382539;26;20226;-69
2024/04/11 12:20:52;;;;;;;4.07;1.80;;;17.80;59.70;;;;;;5381012;26;20326;-68
2024/04/11 12:23:19;;;;;;;2.20;1.40;;;17.80;59.90;;;;;;5382193;26;20222;-68
2024/04/11 12:25:44;;;;;;;2.72;1.55;;;17.70;59.90;;;;;;5381887;26;20248;-67
2024/04/11 12:28:11;;;;;;;1.77;1.60;;;17.70;60.00;;;;;;5381447;26;20221;-68
2024/04/11 12:30:36;;;;;;;2.70;1.63;;;17.70;59.90;;;;;;5382208;26;20256;-68
2024/04/11 12:33:05;;;;;;;2.97;1.50;;;17.70;60.10;;;;;;5381757;26;20222;-67
2024/04/11 12:35:41;;;;;;;3.20;1.60;;;17.70;60.10;;;;;;5404071;26;20233;-67
2024/04/11 12:38:12;;;;;;;4.13;1.60;;;17.70;59.80;;;;;;5417136;26;20225;-67
2024/04/11 12:40:39;;;;;;;1.92;1.27;;;17.70;59.80;;;;;;5382085;26;20561;-68
2024/04/11 12:43:05;;;;;;;2.75;1.52;;;17.60;59.80;;;;;;5350657;26;20285;-67
2024/04/11 12:45:39;;;;;;;1.80;1.33;;;17.60;59.90;;;;;;5382022;26;20222;-67
2024/04/11 12:48:05;;;;;;;1.80;1.58;;;17.60;60.10;;;;;;5381602;26;20562;-67
2024/04/11 12:50:35;;;;;;;2.90;1.73;;;17.60;60.00;;;;;;5381500;26;20339;-68
2024/04/11 12:53:12;;;;;;;2.05;1.60;;;17.60;60.10;;;;;;5385139;26;20263;-67
2024/04/11 12:55:38;;;;;;;3.25;2.08;;;17.60;60.10;;;;;;5413757;26;20581;-67